sensor_id;sensor_type;location;lat;lon;timestamp;P1;durP1;ratioP1;P2;durP2;ratioP2
59824;SDS011;45703;50.898;6.054;2023-03-31T00:01:15;5.45;;;1.10;;
59824;SDS011;45703;50.898;6.054;2023-03-31T00:03:40;5.30;;;1.05;;
59824;SDS011;45703;50.898;6.054;2023-03-31T00:06:08;6.05;;;1.10;;
59824;SDS011;45703;50.898;6.054;2023-03-31T00:08:36;5.25;;;1.30;;
59824;SDS011;45703;50.898;6.054;2023-03-31T00:11:02;7.40;;;1.33;;
59824;SDS011;45703;50.898;6.054;2023-03-31T00:13:29;8.00;;;1.40;;
59824;SDS011;45703;50.898;6.054;2023-03-31T00:15:56;4.63;;;1.05;;
59824;SDS011;45703;50.898;6.054;2023-03-31T00:18:29;5.57;;;1.23;;
59824;SDS011;45703;50.898;6.054;2023-03-31T00:20:58;8.40;;;1.00;;
59824;SDS011;45703;50.898;6.054;2023-03-31T00:23:31;7.00;;;1.90;;
59824;SDS011;45703;50.898;6.054;2023-03-31T00:25:56;9.80;;;1.10;;
59824;SDS011;45703;50.898;6.054;2023-03-31T00:28:22;8.23;;;1.45;;
59824;SDS011;45703;50.898;6.054;2023-03-31T00:30:47;8.50;;;1.38;;
59824;SDS011;45703;50.898;6.054;2023-03-31T00:33:13;8.57;;;1.92;;
59824;SDS011;45703;50.898;6.054;2023-03-31T00:35:38;6.53;;;1.58;;
59824;SDS011;45703;50.898;6.054;2023-03-31T00:38:04;9.60;;;2.05;;
59824;SDS011;45703;50.898;6.054;2023-03-31T00:40:32;5.82;;;1.95;;
59824;SDS011;45703;50.898;6.054;2023-03-31T00:42:58;9.57;;;1.63;;
59824;SDS011;45703;50.898;6.054;2023-03-31T00:45:25;7.85;;;1.67;;
59824;SDS011;45703;50.898;6.054;2023-03-31T00:47:54;9.20;;;1.55;;
59824;SDS011;45703;50.898;6.054;2023-03-31T00:50:28;9.95;;;1.90;;
59824;SDS011;45703;50.898;6.054;2023-03-31T00:53:00;10.30;;;2.85;;
59824;SDS011;45703;50.898;6.054;2023-03-31T00:55:33;8.60;;;1.88;;
59824;SDS011;45703;50.898;6.054;2023-03-31T00:58:02;10.02;;;1.63;;
59824;SDS011;45703;50.898;6.054;2023-03-31T01:00:31;6.20;;;1.45;;
59824;SDS011;45703;50.898;6.054;2023-03-31T01:02:57;7.93;;;1.65;;
59824;SDS011;45703;50.898;6.054;2023-03-31T01:05:35;10.60;;;2.00;;
59824;SDS011;45703;50.898;6.054;2023-03-31T01:08:06;8.55;;;1.65;;
59824;SDS011;45703;50.898;6.054;2023-03-31T01:10:32;9.82;;;1.98;;
59824;SDS011;45703;50.898;6.054;2023-03-31T01:13:05;8.52;;;1.50;;
59824;SDS011;45703;50.898;6.054;2023-03-31T01:15:33;11.27;;;1.98;;
59824;SDS011;45703;50.898;6.054;2023-03-31T01:17:59;8.73;;;1.65;;
59824;SDS011;45703;50.898;6.054;2023-03-31T01:42:35;6.93;;;1.75;;
59824;SDS011;45703;50.898;6.054;2023-03-31T01:47:55;8.93;;;1.83;;
59824;SDS011;45703;50.898;6.054;2023-03-31T01:50:33;9.23;;;1.70;;
59824;SDS011;45703;50.898;6.054;2023-03-31T01:53:21;9.10;;;2.00;;
59824;SDS011;45703;50.898;6.054;2023-03-31T01:58:43;9.82;;;1.77;;
59824;SDS011;45703;50.898;6.054;2023-03-31T02:01:52;9.45;;;2.00;;
59824;SDS011;45703;50.898;6.054;2023-03-31T02:04:23;5.05;;;1.30;;
59824;SDS011;45703;50.898;6.054;2023-03-31T02:07:14;10.90;;;1.92;;
59824;SDS011;45703;50.898;6.054;2023-03-31T02:09:48;11.32;;;2.45;;
59824;SDS011;45703;50.898;6.054;2023-03-31T02:12:17;7.20;;;1.50;;
59824;SDS011;45703;50.898;6.054;2023-03-31T02:14:46;8.10;;;1.58;;
59824;SDS011;45703;50.898;6.054;2023-03-31T02:17:17;11.82;;;2.03;;
59824;SDS011;45703;50.898;6.054;2023-03-31T02:19:46;7.97;;;1.60;;
59824;SDS011;45703;50.898;6.054;2023-03-31T02:22:16;8.52;;;1.70;;
59824;SDS011;45703;50.898;6.054;2023-03-31T02:24:45;10.18;;;2.00;;
59824;SDS011;45703;50.898;6.054;2023-03-31T02:29:50;12.32;;;1.88;;
59824;SDS011;45703;50.898;6.054;2023-03-31T02:32:59;8.40;;;1.65;;
59824;SDS011;45703;50.898;6.054;2023-03-31T02:35:08;9.38;;;2.05;;
59824;SDS011;45703;50.898;6.054;2023-03-31T02:37:36;8.10;;;2.85;;
59824;SDS011;45703;50.898;6.054;2023-03-31T02:40:07;8.13;;;1.27;;
59824;SDS011;45703;50.898;6.054;2023-03-31T02:42:37;6.93;;;1.35;;
59824;SDS011;45703;50.898;6.054;2023-03-31T02:45:04;6.65;;;1.65;;
59824;SDS011;45703;50.898;6.054;2023-03-31T02:47:31;8.18;;;1.30;;
59824;SDS011;45703;50.898;6.054;2023-03-31T02:49:58;5.53;;;1.48;;
59824;SDS011;45703;50.898;6.054;2023-03-31T03:11:49;4.40;;;0.80;;
59824;SDS011;45703;50.898;6.054;2023-03-31T03:14:30;6.35;;;1.13;;
59824;SDS011;45703;50.898;6.054;2023-03-31T03:17:26;5.03;;;0.95;;
59824;SDS011;45703;50.898;6.054;2023-03-31T03:20:03;5.60;;;1.00;;
59824;SDS011;45703;50.898;6.054;2023-03-31T03:22:32;4.25;;;0.90;;
59824;SDS011;45703;50.898;6.054;2023-03-31T03:24:58;6.28;;;0.90;;
59824;SDS011;45703;50.898;6.054;2023-03-31T03:27:23;4.25;;;0.77;;
59824;SDS011;45703;50.898;6.054;2023-03-31T03:29:48;5.50;;;0.88;;
59824;SDS011;45703;50.898;6.054;2023-03-31T03:32:14;5.13;;;1.00;;
59824;SDS011;45703;50.898;6.054;2023-03-31T03:34:39;4.43;;;0.95;;
59824;SDS011;45703;50.898;6.054;2023-03-31T03:37:05;4.43;;;0.80;;
59824;SDS011;45703;50.898;6.054;2023-03-31T03:39:30;6.03;;;0.90;;
59824;SDS011;45703;50.898;6.054;2023-03-31T03:41:56;4.75;;;0.88;;
59824;SDS011;45703;50.898;6.054;2023-03-31T03:44:21;4.00;;;0.70;;
59824;SDS011;45703;50.898;6.054;2023-03-31T03:46:46;4.25;;;0.93;;
59824;SDS011;45703;50.898;6.054;2023-03-31T03:49:12;3.80;;;1.02;;
59824;SDS011;45703;50.898;6.054;2023-03-31T03:51:37;4.43;;;0.93;;
59824;SDS011;45703;50.898;6.054;2023-03-31T03:54:03;4.40;;;0.95;;
59824;SDS011;45703;50.898;6.054;2023-03-31T03:56:28;3.28;;;0.60;;
59824;SDS011;45703;50.898;6.054;2023-03-31T03:58:53;5.25;;;0.85;;
59824;SDS011;45703;50.898;6.054;2023-03-31T04:01:19;4.53;;;1.23;;
59824;SDS011;45703;50.898;6.054;2023-03-31T04:03:45;4.55;;;1.00;;
59824;SDS011;45703;50.898;6.054;2023-03-31T04:06:10;4.68;;;1.17;;
59824;SDS011;45703;50.898;6.054;2023-03-31T04:08:35;5.03;;;1.00;;
59824;SDS011;45703;50.898;6.054;2023-03-31T04:11:01;4.00;;;0.82;;
59824;SDS011;45703;50.898;6.054;2023-03-31T04:19:42;3.85;;;0.90;;
59824;SDS011;45703;50.898;6.054;2023-03-31T04:22:07;4.18;;;0.80;;
59824;SDS011;45703;50.898;6.054;2023-03-31T04:24:35;4.00;;;0.90;;
59824;SDS011;45703;50.898;6.054;2023-03-31T04:27:03;6.35;;;1.05;;
59824;SDS011;45703;50.898;6.054;2023-03-31T04:29:31;4.00;;;0.80;;
59824;SDS011;45703;50.898;6.054;2023-03-31T04:31:58;3.38;;;0.82;;
59824;SDS011;45703;50.898;6.054;2023-03-31T04:34:24;6.35;;;0.95;;
59824;SDS011;45703;50.898;6.054;2023-03-31T04:36:58;5.03;;;1.17;;
59824;SDS011;45703;50.898;6.054;2023-03-31T04:39:26;4.70;;;0.77;;
59824;SDS011;45703;50.898;6.054;2023-03-31T04:41:54;5.32;;;0.80;;
59824;SDS011;45703;50.898;6.054;2023-03-31T04:44:22;4.25;;;0.88;;
59824;SDS011;45703;50.898;6.054;2023-03-31T04:46:48;4.68;;;0.85;;
59824;SDS011;45703;50.898;6.054;2023-03-31T04:49:13;3.95;;;0.90;;
59824;SDS011;45703;50.898;6.054;2023-03-31T04:51:39;5.32;;;0.90;;
59824;SDS011;45703;50.898;6.054;2023-03-31T04:54:05;4.88;;;0.93;;
59824;SDS011;45703;50.898;6.054;2023-03-31T04:56:30;4.68;;;1.10;;
59824;SDS011;45703;50.898;6.054;2023-03-31T04:58:56;4.70;;;0.80;;
59824;SDS011;45703;50.898;6.054;2023-03-31T05:01:21;4.25;;;0.80;;
59824;SDS011;45703;50.898;6.054;2023-03-31T05:03:46;4.90;;;1.00;;
59824;SDS011;45703;50.898;6.054;2023-03-31T05:06:12;4.05;;;0.90;;
59824;SDS011;45703;50.898;6.054;2023-03-31T05:08:39;4.68;;;0.90;;
59824;SDS011;45703;50.898;6.054;2023-03-31T05:11:04;4.65;;;0.88;;
59824;SDS011;45703;50.898;6.054;2023-03-31T05:13:30;5.15;;;1.00;;
59824;SDS011;45703;50.898;6.054;2023-03-31T05:15:56;4.90;;;0.85;;
59824;SDS011;45703;50.898;6.054;2023-03-31T05:18:21;4.75;;;0.80;;
59824;SDS011;45703;50.898;6.054;2023-03-31T05:20:46;5.60;;;1.00;;
59824;SDS011;45703;50.898;6.054;2023-03-31T05:23:12;4.00;;;1.00;;
59824;SDS011;45703;50.898;6.054;2023-03-31T05:25:38;2.83;;;0.68;;
59824;SDS011;45703;50.898;6.054;2023-03-31T05:28:03;6.20;;;1.00;;
59824;SDS011;45703;50.898;6.054;2023-03-31T05:30:30;4.07;;;0.90;;
59824;SDS011;45703;50.898;6.054;2023-03-31T05:32:55;3.20;;;0.70;;
59824;SDS011;45703;50.898;6.054;2023-03-31T05:35:21;2.20;;;0.50;;
59824;SDS011;45703;50.898;6.054;2023-03-31T05:37:46;4.53;;;0.98;;
59824;SDS011;45703;50.898;6.054;2023-03-31T05:40:12;2.72;;;0.57;;
59824;SDS011;45703;50.898;6.054;2023-03-31T05:42:37;3.13;;;0.80;;
59824;SDS011;45703;50.898;6.054;2023-03-31T05:45:03;3.65;;;0.60;;
59824;SDS011;45703;50.898;6.054;2023-03-31T05:47:29;3.97;;;0.88;;
59824;SDS011;45703;50.898;6.054;2023-03-31T05:49:54;5.88;;;0.80;;
59824;SDS011;45703;50.898;6.054;2023-03-31T05:52:20;4.05;;;0.70;;
59824;SDS011;45703;50.898;6.054;2023-03-31T05:54:45;4.47;;;0.73;;
59824;SDS011;45703;50.898;6.054;2023-03-31T05:57:11;4.65;;;0.80;;
59824;SDS011;45703;50.898;6.054;2023-03-31T05:59:36;5.05;;;0.70;;
59824;SDS011;45703;50.898;6.054;2023-03-31T06:02:02;3.28;;;0.88;;
59824;SDS011;45703;50.898;6.054;2023-03-31T06:04:28;4.57;;;0.80;;
59824;SDS011;45703;50.898;6.054;2023-03-31T06:06:56;3.33;;;0.70;;
59824;SDS011;45703;50.898;6.054;2023-03-31T06:09:22;4.43;;;0.90;;
59824;SDS011;45703;50.898;6.054;2023-03-31T06:11:48;3.95;;;0.80;;
59824;SDS011;45703;50.898;6.054;2023-03-31T06:14:13;5.90;;;1.05;;
59824;SDS011;45703;50.898;6.054;2023-03-31T06:16:38;5.57;;;0.80;;
59824;SDS011;45703;50.898;6.054;2023-03-31T06:19:04;5.97;;;1.10;;
59824;SDS011;45703;50.898;6.054;2023-03-31T06:21:29;4.38;;;0.70;;
59824;SDS011;45703;50.898;6.054;2023-03-31T06:23:55;4.68;;;0.90;;
59824;SDS011;45703;50.898;6.054;2023-03-31T06:26:22;3.80;;;0.70;;
59824;SDS011;45703;50.898;6.054;2023-03-31T06:28:47;5.03;;;0.80;;
59824;SDS011;45703;50.898;6.054;2023-03-31T06:31:14;4.68;;;0.90;;
59824;SDS011;45703;50.898;6.054;2023-03-31T06:33:41;5.05;;;1.15;;
59824;SDS011;45703;50.898;6.054;2023-03-31T06:36:08;6.43;;;0.98;;
59824;SDS011;45703;50.898;6.054;2023-03-31T06:38:35;5.03;;;0.93;;
59824;SDS011;45703;50.898;6.054;2023-03-31T06:41:02;5.20;;;1.08;;
59824;SDS011;45703;50.898;6.054;2023-03-31T06:43:28;5.70;;;1.48;;
59824;SDS011;45703;50.898;6.054;2023-03-31T06:45:54;5.47;;;1.00;;
59824;SDS011;45703;50.898;6.054;2023-03-31T06:48:21;5.10;;;0.90;;
59824;SDS011;45703;50.898;6.054;2023-03-31T06:50:47;6.30;;;1.10;;
59824;SDS011;45703;50.898;6.054;2023-03-31T06:53:12;4.72;;;1.10;;
59824;SDS011;45703;50.898;6.054;2023-03-31T06:55:38;4.72;;;1.05;;
59824;SDS011;45703;50.898;6.054;2023-03-31T06:58:03;7.97;;;1.48;;
59824;SDS011;45703;50.898;6.054;2023-03-31T07:00:30;6.78;;;1.25;;
59824;SDS011;45703;50.898;6.054;2023-03-31T07:02:56;6.63;;;1.35;;
59824;SDS011;45703;50.898;6.054;2023-03-31T07:05:21;6.55;;;1.33;;
59824;SDS011;45703;50.898;6.054;2023-03-31T07:07:56;5.22;;;0.95;;
59824;SDS011;45703;50.898;6.054;2023-03-31T07:10:24;5.32;;;1.17;;
59824;SDS011;45703;50.898;6.054;2023-03-31T07:12:50;4.80;;;1.17;;
59824;SDS011;45703;50.898;6.054;2023-03-31T07:15:16;8.15;;;1.30;;
59824;SDS011;45703;50.898;6.054;2023-03-31T07:17:42;6.53;;;1.30;;
59824;SDS011;45703;50.898;6.054;2023-03-31T07:20:11;7.25;;;1.60;;
59824;SDS011;45703;50.898;6.054;2023-03-31T07:22:41;7.70;;;1.52;;
59824;SDS011;45703;50.898;6.054;2023-03-31T07:25:07;8.20;;;1.45;;
59824;SDS011;45703;50.898;6.054;2023-03-31T07:27:34;6.63;;;1.58;;
59824;SDS011;45703;50.898;6.054;2023-03-31T07:29:59;7.20;;;1.42;;
59824;SDS011;45703;50.898;6.054;2023-03-31T07:32:25;6.95;;;1.30;;
59824;SDS011;45703;50.898;6.054;2023-03-31T07:34:50;6.90;;;1.50;;
59824;SDS011;45703;50.898;6.054;2023-03-31T07:37:16;8.23;;;1.60;;
59824;SDS011;45703;50.898;6.054;2023-03-31T07:39:41;6.90;;;1.33;;
59824;SDS011;45703;50.898;6.054;2023-03-31T07:42:06;8.82;;;1.42;;
59824;SDS011;45703;50.898;6.054;2023-03-31T07:44:33;7.47;;;1.45;;
59824;SDS011;45703;50.898;6.054;2023-03-31T07:46:59;8.57;;;1.40;;
59824;SDS011;45703;50.898;6.054;2023-03-31T07:49:28;8.40;;;1.40;;
59824;SDS011;45703;50.898;6.054;2023-03-31T07:51:54;6.07;;;2.00;;
59824;SDS011;45703;50.898;6.054;2023-03-31T07:54:20;7.03;;;1.52;;
59824;SDS011;45703;50.898;6.054;2023-03-31T07:56:45;7.85;;;1.92;;
59824;SDS011;45703;50.898;6.054;2023-03-31T07:59:11;8.95;;;1.92;;
59824;SDS011;45703;50.898;6.054;2023-03-31T08:01:36;9.90;;;1.90;;
59824;SDS011;45703;50.898;6.054;2023-03-31T08:04:02;6.20;;;1.52;;
59824;SDS011;45703;50.898;6.054;2023-03-31T08:06:28;9.05;;;1.58;;
59824;SDS011;45703;50.898;6.054;2023-03-31T08:08:54;7.85;;;1.67;;
59824;SDS011;45703;50.898;6.054;2023-03-31T08:11:20;7.47;;;2.17;;
59824;SDS011;45703;50.898;6.054;2023-03-31T08:13:46;9.90;;;1.90;;
59824;SDS011;45703;50.898;6.054;2023-03-31T08:16:11;11.65;;;1.60;;
59824;SDS011;45703;50.898;6.054;2023-03-31T08:18:37;7.03;;;1.77;;
59824;SDS011;45703;50.898;6.054;2023-03-31T08:21:02;6.97;;;1.50;;
59824;SDS011;45703;50.898;6.054;2023-03-31T08:23:28;11.57;;;1.83;;
59824;SDS011;45703;50.898;6.054;2023-03-31T08:25:53;8.13;;;2.00;;
59824;SDS011;45703;50.898;6.054;2023-03-31T08:28:19;9.90;;;1.63;;
59824;SDS011;45703;50.898;6.054;2023-03-31T08:30:44;10.43;;;2.38;;
59824;SDS011;45703;50.898;6.054;2023-03-31T08:33:10;9.32;;;2.10;;
59824;SDS011;45703;50.898;6.054;2023-03-31T08:35:38;8.23;;;1.67;;
59824;SDS011;45703;50.898;6.054;2023-03-31T08:38:04;7.90;;;1.77;;
59824;SDS011;45703;50.898;6.054;2023-03-31T08:40:29;9.82;;;1.95;;
59824;SDS011;45703;50.898;6.054;2023-03-31T08:43:01;9.52;;;1.80;;
59824;SDS011;45703;50.898;6.054;2023-03-31T08:45:33;7.32;;;1.60;;
59824;SDS011;45703;50.898;6.054;2023-03-31T08:48:05;9.88;;;1.75;;
59824;SDS011;45703;50.898;6.054;2023-03-31T08:50:42;9.90;;;1.63;;
59824;SDS011;45703;50.898;6.054;2023-03-31T08:53:19;6.78;;;1.50;;
59824;SDS011;45703;50.898;6.054;2023-03-31T08:56:14;8.38;;;1.70;;
59824;SDS011;45703;50.898;6.054;2023-03-31T08:58:45;9.98;;;1.70;;
59824;SDS011;45703;50.898;6.054;2023-03-31T09:04:10;8.35;;;1.63;;
59824;SDS011;45703;50.898;6.054;2023-03-31T09:07:06;11.45;;;1.77;;
59824;SDS011;45703;50.898;6.054;2023-03-31T09:12:52;8.38;;;1.77;;
59824;SDS011;45703;50.898;6.054;2023-03-31T09:18:18;8.88;;;1.70;;
59824;SDS011;45703;50.898;6.054;2023-03-31T09:20:50;6.95;;;1.40;;
59824;SDS011;45703;50.898;6.054;2023-03-31T09:23:28;9.97;;;1.73;;
59824;SDS011;45703;50.898;6.054;2023-03-31T09:27:07;9.93;;;1.83;;
59824;SDS011;45703;50.898;6.054;2023-03-31T09:29:14;8.45;;;1.58;;
59824;SDS011;45703;50.898;6.054;2023-03-31T09:31:43;11.05;;;2.22;;
59824;SDS011;45703;50.898;6.054;2023-03-31T09:34:32;9.55;;;2.15;;
59824;SDS011;45703;50.898;6.054;2023-03-31T09:36:57;9.63;;;2.00;;
59824;SDS011;45703;50.898;6.054;2023-03-31T09:39:22;9.05;;;2.00;;
59824;SDS011;45703;50.898;6.054;2023-03-31T09:41:51;11.43;;;1.50;;
59824;SDS011;45703;50.898;6.054;2023-03-31T09:44:22;10.38;;;1.75;;
59824;SDS011;45703;50.898;6.054;2023-03-31T09:47:01;10.43;;;1.80;;
59824;SDS011;45703;50.898;6.054;2023-03-31T09:49:30;8.95;;;1.42;;
59824;SDS011;45703;50.898;6.054;2023-03-31T09:52:00;12.18;;;2.58;;
59824;SDS011;45703;50.898;6.054;2023-03-31T09:57:11;8.63;;;1.75;;
59824;SDS011;45703;50.898;6.054;2023-03-31T09:59:49;7.43;;;1.35;;
59824;SDS011;45703;50.898;6.054;2023-03-31T10:04:59;9.63;;;1.70;;
59824;SDS011;45703;50.898;6.054;2023-03-31T10:07:24;7.10;;;1.40;;
59824;SDS011;45703;50.898;6.054;2023-03-31T10:09:51;9.13;;;1.58;;
59824;SDS011;45703;50.898;6.054;2023-03-31T10:12:19;9.50;;;1.58;;
59824;SDS011;45703;50.898;6.054;2023-03-31T10:14:49;8.10;;;1.30;;
59824;SDS011;45703;50.898;6.054;2023-03-31T10:17:17;7.07;;;1.30;;
59824;SDS011;45703;50.898;6.054;2023-03-31T10:22:32;7.32;;;1.30;;
59824;SDS011;45703;50.898;6.054;2023-03-31T10:25:09;4.95;;;0.88;;
59824;SDS011;45703;50.898;6.054;2023-03-31T10:27:41;4.90;;;0.90;;
59824;SDS011;45703;50.898;6.054;2023-03-31T10:30:10;4.85;;;1.15;;
59824;SDS011;45703;50.898;6.054;2023-03-31T10:32:37;7.03;;;0.90;;
59824;SDS011;45703;50.898;6.054;2023-03-31T10:35:21;5.20;;;1.08;;
59824;SDS011;45703;50.898;6.054;2023-03-31T10:37:48;6.03;;;1.27;;
59824;SDS011;45703;50.898;6.054;2023-03-31T10:40:24;7.15;;;1.27;;
59824;SDS011;45703;50.898;6.054;2023-03-31T10:45:55;8.63;;;1.50;;
59824;SDS011;45703;50.898;6.054;2023-03-31T10:50:47;9.35;;;1.58;;
59824;SDS011;45703;50.898;6.054;2023-03-31T10:53:13;8.90;;;1.58;;
59824;SDS011;45703;50.898;6.054;2023-03-31T10:55:50;8.05;;;1.30;;
59824;SDS011;45703;50.898;6.054;2023-03-31T11:01:19;10.02;;;1.48;;
59824;SDS011;45703;50.898;6.054;2023-03-31T11:06:29;10.00;;;1.60;;
59824;SDS011;45703;50.898;6.054;2023-03-31T11:09:15;8.10;;;1.40;;
59824;SDS011;45703;50.898;6.054;2023-03-31T11:12:05;9.27;;;1.73;;
59824;SDS011;45703;50.898;6.054;2023-03-31T11:22:36;12.05;;;1.98;;
59824;SDS011;45703;50.898;6.054;2023-03-31T11:25:36;10.32;;;2.00;;
59824;SDS011;45703;50.898;6.054;2023-03-31T11:41:25;10.77;;;1.40;;
59824;SDS011;45703;50.898;6.054;2023-03-31T11:43:59;9.15;;;1.88;;
59824;SDS011;45703;50.898;6.054;2023-03-31T11:46:47;9.77;;;1.77;;
59824;SDS011;45703;50.898;6.054;2023-03-31T11:49:22;9.45;;;1.45;;
59824;SDS011;45703;50.898;6.054;2023-03-31T11:51:55;9.05;;;1.48;;
59824;SDS011;45703;50.898;6.054;2023-03-31T11:54:28;8.65;;;1.92;;
59824;SDS011;45703;50.898;6.054;2023-03-31T11:57:08;7.70;;;1.25;;
59824;SDS011;45703;50.898;6.054;2023-03-31T11:59:39;7.40;;;1.20;;
59824;SDS011;45703;50.898;6.054;2023-03-31T12:02:25;10.73;;;1.67;;
59824;SDS011;45703;50.898;6.054;2023-03-31T12:05:05;7.13;;;1.60;;
59824;SDS011;45703;50.898;6.054;2023-03-31T12:07:35;6.13;;;1.10;;
59824;SDS011;45703;50.898;6.054;2023-03-31T12:10:14;9.90;;;1.88;;
59824;SDS011;45703;50.898;6.054;2023-03-31T12:12:53;8.48;;;1.55;;
59824;SDS011;45703;50.898;6.054;2023-03-31T12:17:56;7.90;;;1.27;;
59824;SDS011;45703;50.898;6.054;2023-03-31T12:20:28;9.23;;;1.58;;
59824;SDS011;45703;50.898;6.054;2023-03-31T12:22:58;9.05;;;1.90;;
59824;SDS011;45703;50.898;6.054;2023-03-31T12:25:25;8.30;;;1.48;;
59824;SDS011;45703;50.898;6.054;2023-03-31T12:28:04;9.88;;;1.40;;
59824;SDS011;45703;50.898;6.054;2023-03-31T12:30:34;11.10;;;1.77;;
59824;SDS011;45703;50.898;6.054;2023-03-31T12:33:05;8.57;;;1.50;;
59824;SDS011;45703;50.898;6.054;2023-03-31T12:35:43;6.78;;;1.08;;
59824;SDS011;45703;50.898;6.054;2023-03-31T12:52:38;7.15;;;1.40;;
59824;SDS011;45703;50.898;6.054;2023-03-31T12:55:46;7.88;;;1.38;;
59824;SDS011;45703;50.898;6.054;2023-03-31T13:06:02;8.32;;;1.30;;
59824;SDS011;45703;50.898;6.054;2023-03-31T13:08:47;7.38;;;1.35;;
59824;SDS011;45703;50.898;6.054;2023-03-31T13:11:14;7.85;;;1.30;;
59824;SDS011;45703;50.898;6.054;2023-03-31T13:13:44;7.88;;;1.38;;
59824;SDS011;45703;50.898;6.054;2023-03-31T13:16:23;5.32;;;1.00;;
59824;SDS011;45703;50.898;6.054;2023-03-31T13:18:52;7.82;;;1.50;;
59824;SDS011;45703;50.898;6.054;2023-03-31T13:21:18;8.63;;;1.33;;
59824;SDS011;45703;50.898;6.054;2023-03-31T13:23:44;7.00;;;1.10;;
59824;SDS011;45703;50.898;6.054;2023-03-31T13:26:56;9.35;;;1.23;;
59824;SDS011;45703;50.898;6.054;2023-03-31T13:29:10;6.38;;;1.17;;
59824;SDS011;45703;50.898;6.054;2023-03-31T13:34:30;6.38;;;0.90;;
59824;SDS011;45703;50.898;6.054;2023-03-31T13:39:40;7.28;;;1.10;;
59824;SDS011;45703;50.898;6.054;2023-03-31T13:45:09;5.85;;;0.95;;
59824;SDS011;45703;50.898;6.054;2023-03-31T13:47:57;5.68;;;1.10;;
59824;SDS011;45703;50.898;6.054;2023-03-31T13:59:13;6.07;;;1.30;;
59824;SDS011;45703;50.898;6.054;2023-03-31T14:04:29;6.93;;;1.10;;
59824;SDS011;45703;50.898;6.054;2023-03-31T14:07:13;7.97;;;1.45;;
59824;SDS011;45703;50.898;6.054;2023-03-31T14:09:42;7.17;;;1.10;;
59824;SDS011;45703;50.898;6.054;2023-03-31T14:14:59;11.15;;;1.67;;
59824;SDS011;45703;50.898;6.054;2023-03-31T14:17:46;6.63;;;1.40;;
59824;SDS011;45703;50.898;6.054;2023-03-31T14:28:16;9.15;;;1.63;;
59824;SDS011;45703;50.898;6.054;2023-03-31T14:38:54;8.68;;;1.52;;
59824;SDS011;45703;50.898;6.054;2023-03-31T14:41:26;7.63;;;1.83;;
59824;SDS011;45703;50.898;6.054;2023-03-31T14:43:55;6.20;;;1.45;;
59824;SDS011;45703;50.898;6.054;2023-03-31T14:46:24;6.57;;;1.42;;
59824;SDS011;45703;50.898;6.054;2023-03-31T14:48:50;9.27;;;1.50;;
59824;SDS011;45703;50.898;6.054;2023-03-31T14:51:28;9.05;;;1.42;;
59824;SDS011;45703;50.898;6.054;2023-03-31T14:54:01;7.80;;;1.45;;
59824;SDS011;45703;50.898;6.054;2023-03-31T14:56:29;10.27;;;1.50;;
59824;SDS011;45703;50.898;6.054;2023-03-31T14:59:03;6.55;;;1.55;;
59824;SDS011;45703;50.898;6.054;2023-03-31T15:01:30;7.15;;;1.80;;
59824;SDS011;45703;50.898;6.054;2023-03-31T15:04:10;7.80;;;1.40;;
59824;SDS011;45703;50.898;6.054;2023-03-31T15:06:39;9.00;;;1.67;;
59824;SDS011;45703;50.898;6.054;2023-03-31T15:09:06;9.23;;;1.25;;
59824;SDS011;45703;50.898;6.054;2023-03-31T15:11:36;8.85;;;1.90;;
59824;SDS011;45703;50.898;6.054;2023-03-31T15:14:02;6.50;;;1.02;;
59824;SDS011;45703;50.898;6.054;2023-03-31T15:16:41;6.63;;;1.20;;
59824;SDS011;45703;50.898;6.054;2023-03-31T15:19:17;6.43;;;0.90;;
59824;SDS011;45703;50.898;6.054;2023-03-31T15:21:44;6.40;;;0.93;;
59824;SDS011;45703;50.898;6.054;2023-03-31T15:24:11;5.80;;;1.30;;
59824;SDS011;45703;50.898;6.054;2023-03-31T15:26:42;7.93;;;1.00;;
59824;SDS011;45703;50.898;6.054;2023-03-31T15:29:13;6.50;;;0.98;;
59824;SDS011;45703;50.898;6.054;2023-03-31T15:31:46;4.93;;;0.88;;
59824;SDS011;45703;50.898;6.054;2023-03-31T15:34:20;7.78;;;1.00;;
59824;SDS011;45703;50.898;6.054;2023-03-31T15:36:52;7.05;;;1.00;;
59824;SDS011;45703;50.898;6.054;2023-03-31T15:39:19;5.90;;;0.80;;
59824;SDS011;45703;50.898;6.054;2023-03-31T15:41:46;3.00;;;0.68;;
59824;SDS011;45703;50.898;6.054;2023-03-31T15:44:33;4.63;;;0.85;;
59824;SDS011;45703;50.898;6.054;2023-03-31T15:47:12;6.45;;;1.33;;
59824;SDS011;45703;50.898;6.054;2023-03-31T15:49:45;4.85;;;1.25;;
59824;SDS011;45703;50.898;6.054;2023-03-31T15:52:21;4.32;;;1.05;;
59824;SDS011;45703;50.898;6.054;2023-03-31T15:54:58;6.30;;;0.95;;
59824;SDS011;45703;50.898;6.054;2023-03-31T15:57:29;6.72;;;1.13;;
59824;SDS011;45703;50.898;6.054;2023-03-31T15:59:59;4.35;;;0.90;;
59824;SDS011;45703;50.898;6.054;2023-03-31T16:02:38;5.32;;;0.80;;
59824;SDS011;45703;50.898;6.054;2023-03-31T16:05:20;4.97;;;0.98;;
59824;SDS011;45703;50.898;6.054;2023-03-31T16:07:57;4.45;;;0.95;;
59824;SDS011;45703;50.898;6.054;2023-03-31T16:10:23;5.40;;;0.73;;
59824;SDS011;45703;50.898;6.054;2023-03-31T16:12:52;4.78;;;0.60;;
59824;SDS011;45703;50.898;6.054;2023-03-31T16:15:37;5.97;;;1.00;;
59824;SDS011;45703;50.898;6.054;2023-03-31T16:20:41;5.18;;;1.00;;
59824;SDS011;45703;50.898;6.054;2023-03-31T16:23:23;3.78;;;1.40;;
59824;SDS011;45703;50.898;6.054;2023-03-31T16:25:51;4.07;;;0.77;;
59824;SDS011;45703;50.898;6.054;2023-03-31T16:28:31;4.63;;;0.90;;
59824;SDS011;45703;50.898;6.054;2023-03-31T16:31:01;4.70;;;0.90;;
59824;SDS011;45703;50.898;6.054;2023-03-31T16:33:29;5.85;;;0.90;;
59824;SDS011;45703;50.898;6.054;2023-03-31T16:35:56;6.32;;;1.10;;
59824;SDS011;45703;50.898;6.054;2023-03-31T16:38:23;8.10;;;1.40;;
59824;SDS011;45703;50.898;6.054;2023-03-31T16:40:51;5.90;;;1.15;;
59824;SDS011;45703;50.898;6.054;2023-03-31T16:43:19;5.38;;;1.17;;
59824;SDS011;45703;50.898;6.054;2023-03-31T16:45:50;5.72;;;0.90;;
59824;SDS011;45703;50.898;6.054;2023-03-31T16:48:18;5.75;;;1.10;;
59824;SDS011;45703;50.898;6.054;2023-03-31T16:50:46;5.53;;;0.93;;
59824;SDS011;45703;50.898;6.054;2023-03-31T16:53:13;6.45;;;1.83;;
59824;SDS011;45703;50.898;6.054;2023-03-31T16:55:39;5.95;;;1.40;;
59824;SDS011;45703;50.898;6.054;2023-03-31T16:58:05;6.05;;;1.90;;
59824;SDS011;45703;50.898;6.054;2023-03-31T17:00:32;5.50;;;1.00;;
59824;SDS011;45703;50.898;6.054;2023-03-31T17:03:00;5.50;;;1.02;;
59824;SDS011;45703;50.898;6.054;2023-03-31T17:05:29;5.90;;;0.90;;
59824;SDS011;45703;50.898;6.054;2023-03-31T17:07:57;5.18;;;0.75;;
59824;SDS011;45703;50.898;6.054;2023-03-31T17:10:23;4.53;;;0.90;;
59824;SDS011;45703;50.898;6.054;2023-03-31T17:12:48;6.38;;;1.30;;
59824;SDS011;45703;50.898;6.054;2023-03-31T17:15:16;6.65;;;1.17;;
59824;SDS011;45703;50.898;6.054;2023-03-31T17:17:42;6.50;;;1.23;;
59824;SDS011;45703;50.898;6.054;2023-03-31T17:20:08;7.18;;;1.00;;
59824;SDS011;45703;50.898;6.054;2023-03-31T17:22:37;5.35;;;1.05;;
59824;SDS011;45703;50.898;6.054;2023-03-31T17:25:03;4.88;;;1.15;;
59824;SDS011;45703;50.898;6.054;2023-03-31T17:27:29;4.93;;;0.85;;
59824;SDS011;45703;50.898;6.054;2023-03-31T17:29:56;5.75;;;1.10;;
59824;SDS011;45703;50.898;6.054;2023-03-31T17:32:21;5.72;;;0.90;;
59824;SDS011;45703;50.898;6.054;2023-03-31T17:34:47;6.53;;;1.13;;
59824;SDS011;45703;50.898;6.054;2023-03-31T17:37:14;6.05;;;1.05;;
59824;SDS011;45703;50.898;6.054;2023-03-31T17:39:41;5.15;;;1.13;;
59824;SDS011;45703;50.898;6.054;2023-03-31T17:42:07;5.43;;;0.77;;
59824;SDS011;45703;50.898;6.054;2023-03-31T17:44:33;4.18;;;0.73;;
59824;SDS011;45703;50.898;6.054;2023-03-31T17:46:59;4.90;;;0.90;;
59824;SDS011;45703;50.898;6.054;2023-03-31T17:49:25;3.63;;;0.82;;
59824;SDS011;45703;50.898;6.054;2023-03-31T17:51:51;4.65;;;0.98;;
59824;SDS011;45703;50.898;6.054;2023-03-31T17:54:17;3.85;;;0.80;;